Main page
METAR-TAF:

METAR-TAF

Airports :

King Khalid Military City

Hafar Al-Batin, Saudi Arabia

latitude: 27-54N, longitude: 045-32E, elevation: 413 m

METAR: missing

Time: 00:12 (21:12 UTC)

Forecast

The report was made 16 hours and 12 minutes ago, at 05:00 UTC
Forecast valid from 21 at 06 UTC to 21 at 20 UTC
Wind 6 kt from the North/Northwest with gusts up to 16 kt
Visibility: 7000 m
Scattered clouds at a height of 4000 ft
Scattered clouds at a height of 9000 ft

TAF: OEKK 210500Z 2106/2120 34006G16KT 7000 SCT040 SCT090

Weather observations and forecasts of more than 4000 airports (METAR and TAF reports).

The available stations are represented by yellow and red dots on the map.

Hover mouse over dot to see the name of the station.

Then click to see weather observations and forecasts.

To change the map : click on the green buttons with a black cross to zoom in, on the green button with a dash to zoom out, or on the green arrows for adjacent maps.


METAR-TAF: